createdAt,value
2018-08-09T00:01:37.832Z,3.30
2018-08-09T00:04:06.470Z,3.00
2018-08-09T00:06:35.649Z,6.00
2018-08-09T00:09:06.306Z,12.50
2018-08-09T00:11:34.900Z,3.00
2018-08-09T00:14:03.533Z,3.40
2018-08-09T00:16:32.162Z,4.23
2018-08-09T00:19:00.797Z,2.70
2018-08-09T00:21:29.553Z,2.90
2018-08-09T00:23:58.169Z,3.47
2018-08-09T00:26:26.780Z,4.73
2018-08-09T00:28:56.255Z,4.13
2018-08-09T00:31:24.958Z,2.73
2018-08-09T00:33:53.648Z,3.57
2018-08-09T00:36:22.824Z,2.93
2018-08-09T00:38:51.576Z,2.73
2018-08-09T00:41:20.352Z,2.97
2018-08-09T00:43:48.976Z,4.83
2018-08-09T00:46:17.664Z,3.60
2018-08-09T00:48:46.292Z,4.90
2018-08-09T00:51:14.957Z,5.00
2018-08-09T00:53:43.685Z,3.67
2018-08-09T00:56:12.534Z,4.53
2018-08-09T00:58:41.175Z,3.57
2018-08-09T01:01:09.827Z,3.53
2018-08-09T01:03:38.464Z,3.67
2018-08-09T01:06:07.140Z,3.13
2018-08-09T01:08:35.727Z,3.97
2018-08-09T01:11:04.384Z,3.20
2018-08-09T01:13:33.223Z,2.97
2018-08-09T01:16:01.881Z,4.20
2018-08-09T01:18:30.572Z,2.70
2018-08-09T01:20:59.263Z,4.50
2018-08-09T01:23:27.840Z,5.90
2018-08-09T01:25:56.600Z,4.83
2018-08-09T01:28:25.187Z,3.40
2018-08-09T01:30:53.855Z,5.10
2018-08-09T01:33:22.712Z,4.03
2018-08-09T01:35:51.411Z,2.63
2018-08-09T01:38:20.166Z,2.93
2018-08-09T01:40:48.794Z,3.10
2018-08-09T01:44:22.660Z,3.80
2018-08-09T01:46:51.436Z,3.43
2018-08-09T01:49:20.077Z,3.30
2018-08-09T01:51:48.912Z,3.20
2018-08-09T01:54:17.568Z,3.67
2018-08-09T01:56:46.179Z,3.40
2018-08-09T01:59:14.728Z,4.40
2018-08-09T02:01:43.360Z,4.10
2018-08-09T02:04:11.884Z,5.77
2018-08-09T02:06:40.412Z,3.53
2018-08-09T02:09:11.349Z,5.30
2018-08-09T02:11:39.918Z,3.40
2018-08-09T02:14:08.496Z,4.00
2018-08-09T02:16:37.042Z,4.20
2018-08-09T02:19:05.855Z,3.37
2018-08-09T02:21:34.727Z,3.00
2018-08-09T02:24:04.227Z,3.93
2018-08-09T02:26:32.829Z,3.63
2018-08-09T02:29:01.393Z,3.23
2018-08-09T02:31:30.496Z,3.67
2018-08-09T02:33:59.248Z,5.57
2018-08-09T02:36:27.866Z,3.90
2018-08-09T02:38:57.580Z,3.60
2018-08-09T02:41:26.180Z,4.40
2018-08-09T02:43:54.890Z,6.07
2018-08-09T02:46:23.728Z,4.40
2018-08-09T02:48:52.376Z,5.80
2018-08-09T02:51:20.948Z,6.00
2018-08-09T02:53:49.505Z,4.20
2018-08-09T02:56:18.050Z,5.73
2018-08-09T02:58:46.592Z,8.53
2018-08-09T03:01:15.212Z,6.23
2018-08-09T03:03:43.796Z,4.37
2018-08-09T03:06:12.316Z,4.30
2018-08-09T03:08:40.984Z,4.43
2018-08-09T03:11:09.597Z,7.83
2018-08-09T03:13:38.173Z,4.30
2018-08-09T03:16:07.167Z,6.73
2018-08-09T03:18:35.799Z,3.90
2018-08-09T03:21:04.307Z,5.60
2018-08-09T03:23:32.864Z,5.43
2018-08-09T03:26:01.648Z,6.37
2018-08-09T03:28:30.205Z,8.43
2018-08-09T03:30:58.943Z,9.20
2018-08-09T03:33:27.527Z,7.53
2018-08-09T03:35:56.116Z,5.90
2018-08-09T03:38:24.713Z,5.33
2018-08-09T03:40:53.280Z,8.97
2018-08-09T03:43:21.894Z,5.90
2018-08-09T03:45:50.405Z,6.60
2018-08-09T03:48:19.007Z,5.47
2018-08-09T03:50:47.611Z,7.27
2018-08-09T03:53:16.286Z,7.40
2018-08-09T03:55:45.633Z,5.63
2018-08-09T03:58:14.235Z,5.70
2018-08-09T04:00:42.842Z,5.20
2018-08-09T04:03:11.415Z,5.20
2018-08-09T04:05:39.964Z,4.27
2018-08-09T04:08:08.530Z,8.23
2018-08-09T04:10:37.113Z,9.33
2018-08-09T04:13:06.549Z,5.10
2018-08-09T04:15:35.352Z,5.87
2018-08-09T04:18:03.956Z,5.20
2018-08-09T04:20:32.504Z,5.23
2018-08-09T04:23:01.274Z,4.93
2018-08-09T04:25:29.852Z,4.80
2018-08-09T04:27:58.496Z,4.30
2018-08-09T04:30:27.284Z,7.00
2018-08-09T04:32:56.071Z,5.70
2018-08-09T04:35:24.768Z,6.00
2018-08-09T04:37:53.476Z,8.27
2018-08-09T04:40:22.088Z,6.83
2018-08-09T04:42:50.709Z,5.03
2018-08-09T04:45:19.315Z,4.33
2018-08-09T04:47:47.907Z,4.63
2018-08-09T04:50:17.745Z,8.67
2018-08-09T04:52:48.197Z,6.20
2018-08-09T04:55:16.859Z,7.23
2018-08-09T04:57:46.048Z,9.37
2018-08-09T05:00:15.497Z,7.80
2018-08-09T05:02:44.207Z,5.30
2018-08-09T05:05:12.883Z,7.93
2018-08-09T05:07:41.423Z,6.17
2018-08-09T05:10:11.125Z,13.97
2018-08-09T05:12:41.318Z,5.60
2018-08-09T05:15:10.180Z,5.40
2018-08-09T05:17:38.723Z,5.70
2018-08-09T05:20:07.512Z,6.07
2018-08-09T05:22:36.190Z,8.70
2018-08-09T05:25:05.676Z,8.60
2018-08-09T05:27:34.221Z,7.03
2018-08-09T05:30:03.356Z,7.67
2018-08-09T05:32:31.952Z,11.33
2018-08-09T05:35:00.478Z,4.87
2018-08-09T05:37:29.051Z,4.67
2018-08-09T05:39:57.580Z,5.20
2018-08-09T05:42:26.139Z,6.13
2018-08-09T05:44:54.788Z,8.10
2018-08-09T05:47:23.380Z,7.87
2018-08-09T05:49:52.020Z,7.10
2018-08-09T05:52:20.603Z,6.53
2018-08-09T05:54:49.468Z,10.20
2018-08-09T05:57:18.229Z,5.10
2018-08-09T05:59:47.007Z,7.83
2018-08-09T06:02:15.719Z,9.40
2018-08-09T06:04:44.696Z,6.67
2018-08-09T06:07:13.384Z,4.97
2018-08-09T06:09:41.989Z,4.77
2018-08-09T06:12:10.824Z,13.37
2018-08-09T06:14:39.379Z,5.20
2018-08-09T06:17:08.543Z,5.27
2018-08-09T06:19:37.123Z,4.33
2018-08-09T06:22:05.742Z,12.80
2018-08-09T06:24:34.332Z,3.90
2018-08-09T06:27:03.688Z,3.67
2018-08-09T06:29:32.354Z,7.73
2018-08-09T06:32:00.920Z,5.83
2018-08-09T06:34:29.463Z,5.13
2018-08-09T06:36:58.015Z,5.93
2018-08-09T06:39:26.642Z,6.37
2018-08-09T06:41:55.217Z,9.13
2018-08-09T06:44:23.784Z,7.40
2018-08-09T06:46:52.416Z,4.23
2018-08-09T06:49:21.011Z,6.63
2018-08-09T06:51:49.603Z,11.40
2018-08-09T06:54:18.276Z,8.20
2018-08-09T06:56:46.952Z,7.27
2018-08-09T06:59:15.472Z,5.60
2018-08-09T07:01:44.304Z,8.03
2018-08-09T07:04:12.909Z,5.90
2018-08-09T07:06:42.152Z,3.80
2018-08-09T07:09:11.639Z,5.40
2018-08-09T07:11:40.375Z,6.83
2018-08-09T07:14:09.009Z,5.33
2018-08-09T07:16:37.598Z,4.60
2018-08-09T07:19:06.227Z,5.20
2018-08-09T07:21:34.809Z,4.00
2018-08-09T07:24:04.137Z,12.03
2018-08-09T07:26:32.761Z,8.50
2018-08-09T07:29:01.233Z,6.23
2018-08-09T07:31:29.815Z,4.50
2018-08-09T07:33:58.394Z,2.87
2018-08-09T07:36:26.998Z,5.13
2018-08-09T07:38:55.506Z,5.40
2018-08-09T07:41:24.114Z,3.73
2018-08-09T07:43:52.680Z,5.10
2018-08-09T07:46:21.318Z,7.60
2018-08-09T07:48:50.102Z,4.83
2018-08-09T07:51:18.723Z,6.17
2018-08-09T07:53:47.265Z,3.53
2018-08-09T07:56:15.871Z,4.27
2018-08-09T07:58:44.545Z,6.10
2018-08-09T08:01:13.157Z,6.40
2018-08-09T08:03:41.824Z,9.10
2018-08-09T08:06:10.834Z,6.70
2018-08-09T08:08:39.461Z,5.90
2018-08-09T08:11:08.867Z,13.77
2018-08-09T08:13:38.380Z,12.07
2018-08-09T08:16:07.909Z,5.50
2018-08-09T08:18:36.590Z,7.67
2018-08-09T08:21:05.791Z,11.53
2018-08-09T08:23:35.076Z,7.37
2018-08-09T08:26:04.368Z,7.20
2018-08-09T08:28:33.740Z,9.00
2018-08-09T08:31:02.373Z,9.03
2018-08-09T08:33:31.560Z,7.47
2018-08-09T08:36:00.331Z,8.27
2018-08-09T08:38:29.139Z,9.20
2018-08-09T08:40:57.723Z,10.20
2018-08-09T08:43:26.311Z,9.97
2018-08-09T08:45:55.155Z,10.20
2018-08-09T08:48:23.990Z,9.00
2018-08-09T08:50:52.557Z,10.03
2018-08-09T08:53:21.238Z,11.90
2018-08-09T08:55:50.327Z,9.33
2018-08-09T08:58:18.978Z,9.03
2018-08-09T09:00:48.227Z,8.70
2018-08-09T09:03:17.340Z,10.20
2018-08-09T09:05:45.987Z,11.30
2018-08-09T09:08:14.603Z,11.60
2018-08-09T09:10:43.433Z,14.83
2018-08-09T09:13:12.002Z,8.97
2018-08-09T09:15:40.646Z,11.37
2018-08-09T09:18:09.255Z,10.10
2018-08-09T09:20:38.000Z,9.13
2018-08-09T09:23:06.781Z,10.67
2018-08-09T09:25:35.340Z,9.00
2018-08-09T09:28:04.076Z,11.37
2018-08-09T09:30:32.646Z,9.17
2018-08-09T09:33:01.296Z,12.03
2018-08-09T09:35:29.958Z,9.53
2018-08-09T09:37:58.714Z,9.70
2018-08-09T09:40:27.297Z,9.10
2018-08-09T09:42:55.919Z,8.87
2018-08-09T09:45:24.700Z,9.83
2018-08-09T09:47:53.367Z,9.50
2018-08-09T09:50:22.117Z,11.70
2018-08-09T09:52:50.699Z,10.17
2018-08-09T09:55:19.316Z,8.23
2018-08-09T09:57:48.053Z,11.83
2018-08-09T10:00:21.965Z,11.77
2018-08-09T10:02:50.696Z,8.87
2018-08-09T10:05:19.271Z,9.90
2018-08-09T10:07:47.816Z,11.00
2018-08-09T10:10:17.040Z,8.93
2018-08-09T10:12:45.653Z,11.83
2018-08-09T10:15:14.463Z,9.37
2018-08-09T10:17:43.170Z,7.07
2018-08-09T10:20:11.853Z,9.20
2018-08-09T10:22:40.535Z,9.43
2018-08-09T10:25:09.235Z,8.47
2018-08-09T10:27:37.893Z,13.30
2018-08-09T10:30:07.088Z,9.47
2018-08-09T10:32:35.722Z,12.07
2018-08-09T10:35:04.339Z,9.10
2018-08-09T10:37:33.251Z,8.87
2018-08-09T10:40:01.797Z,9.10
2018-08-09T10:42:31.008Z,8.80
2018-08-09T10:44:59.667Z,8.97
2018-08-09T10:47:28.499Z,9.87
2018-08-09T10:49:57.732Z,9.10
2018-08-09T10:52:26.288Z,9.80
2018-08-09T10:54:55.332Z,8.50
2018-08-09T10:57:23.920Z,8.80
2018-08-09T10:59:53.239Z,14.70
2018-08-09T11:02:21.844Z,9.03
2018-08-09T11:04:50.579Z,8.60
2018-08-09T11:07:19.099Z,12.57
2018-08-09T11:09:47.646Z,10.00
2018-08-09T11:12:16.193Z,9.23
2018-08-09T11:14:45.006Z,12.30
2018-08-09T11:17:13.676Z,8.60
2018-08-09T11:19:42.363Z,11.73
2018-08-09T11:22:10.969Z,9.10
2018-08-09T11:24:39.506Z,9.47
2018-08-09T11:27:08.159Z,11.10
2018-08-09T11:29:36.772Z,13.80
2018-08-09T11:32:05.447Z,15.93
2018-08-09T11:34:34.022Z,10.83
2018-08-09T11:37:08.591Z,11.80
2018-08-09T11:39:37.499Z,11.07
2018-08-09T11:42:06.399Z,15.07
2018-08-09T11:44:34.927Z,11.00
2018-08-09T11:47:03.865Z,10.90
2018-08-09T11:49:32.523Z,10.77
2018-08-09T11:52:01.137Z,12.07
2018-08-09T11:54:29.728Z,11.60
2018-08-09T11:56:58.353Z,11.93
2018-08-09T11:59:26.846Z,12.67
2018-08-09T12:01:55.360Z,10.67
2018-08-09T12:04:24.014Z,10.53
2018-08-09T12:06:52.495Z,10.33
2018-08-09T12:09:21.177Z,11.30
2018-08-09T12:11:49.770Z,9.83
2018-08-09T12:14:18.395Z,7.93
2018-08-09T12:16:46.950Z,7.90
2018-08-09T12:19:15.544Z,14.00
2018-08-09T12:21:44.279Z,10.50
2018-08-09T12:24:12.902Z,10.00
2018-08-09T12:26:41.516Z,12.57
2018-08-09T12:29:10.090Z,12.30
2018-08-09T12:31:38.625Z,8.63
2018-08-09T12:34:08.230Z,8.73
2018-08-09T12:36:36.896Z,10.20
2018-08-09T12:39:09.024Z,7.73
2018-08-09T12:41:37.842Z,8.17
2018-08-09T12:44:06.452Z,8.53
2018-08-09T12:46:35.152Z,5.93
2018-08-09T12:49:03.827Z,6.33
2018-08-09T12:51:32.548Z,12.97
2018-08-09T12:54:01.128Z,12.30
2018-08-09T12:56:30.044Z,9.57
2018-08-09T12:58:58.631Z,11.60
2018-08-09T13:01:27.259Z,5.87
2018-08-09T13:03:57.924Z,7.70
2018-08-09T13:06:26.590Z,11.37
2018-08-09T13:08:55.545Z,10.33
2018-08-09T13:11:24.188Z,7.40
2018-08-09T13:13:52.942Z,10.43
2018-08-09T13:16:21.660Z,9.10
2018-08-09T13:18:50.423Z,9.57
2018-08-09T13:21:18.964Z,13.43
2018-08-09T13:23:47.508Z,7.30
2018-08-09T13:26:16.177Z,6.93
2018-08-09T13:28:44.833Z,7.10
2018-08-09T13:31:15.036Z,10.93
2018-08-09T13:33:43.749Z,8.73
2018-08-09T13:36:13.445Z,9.50
2018-08-09T13:38:42.124Z,21.20
2018-08-09T13:41:10.771Z,15.33
2018-08-09T13:43:40.416Z,20.07
2018-08-09T13:46:09.035Z,12.93
2018-08-09T13:48:37.750Z,9.77
2018-08-09T13:51:06.626Z,5.20
2018-08-09T13:53:36.319Z,11.63
2018-08-09T13:56:05.167Z,5.93
2018-08-09T13:58:33.842Z,12.50
2018-08-09T14:01:02.941Z,9.13
2018-08-09T14:03:31.574Z,6.13
2018-08-09T14:06:00.360Z,8.97
2018-08-09T14:08:29.122Z,6.97
2018-08-09T14:10:57.712Z,9.60
2018-08-09T14:13:27.519Z,13.30
2018-08-09T14:15:56.249Z,7.73
2018-08-09T14:18:26.126Z,8.50
2018-08-09T14:20:54.792Z,8.27
2018-08-09T14:23:23.423Z,10.40
2018-08-09T14:25:52.181Z,8.60
2018-08-09T14:28:20.789Z,8.03
2018-08-09T14:30:49.520Z,6.93
2018-08-09T14:33:18.088Z,5.63
2018-08-09T14:35:46.931Z,6.83
2018-08-09T14:38:15.677Z,9.57
2018-08-09T14:40:44.243Z,8.10
2018-08-09T14:43:12.912Z,8.73
2018-08-09T14:45:41.572Z,5.57
2018-08-09T14:48:10.381Z,10.37
2018-08-09T14:50:39.017Z,8.23
2018-08-09T14:53:07.559Z,9.73
2018-08-09T14:55:36.248Z,6.90
2018-08-09T14:58:05.246Z,6.60
2018-08-09T15:00:33.821Z,8.77
2018-08-09T15:03:02.765Z,7.10
2018-08-09T15:05:31.373Z,6.23
2018-08-09T15:07:59.948Z,6.43
2018-08-09T15:10:29.573Z,5.67
2018-08-09T15:12:58.955Z,5.63
2018-08-09T15:15:27.657Z,7.30
2018-08-09T15:17:56.298Z,9.50
2018-08-09T15:20:25.454Z,5.30
2018-08-09T15:22:54.220Z,8.47
2018-08-09T15:25:22.849Z,6.40
2018-08-09T15:27:51.500Z,6.97
2018-08-09T15:30:20.913Z,8.37
2018-08-09T15:32:49.792Z,6.60
2018-08-09T15:35:18.494Z,8.87
2018-08-09T15:37:47.181Z,7.90
2018-08-09T15:40:16.279Z,3.90
2018-08-09T15:42:44.821Z,10.10
2018-08-09T15:45:15.583Z,4.80
2018-08-09T15:47:44.390Z,4.23
2018-08-09T15:50:15.132Z,10.97
2018-08-09T15:52:43.936Z,9.10
2018-08-09T15:55:13.252Z,7.67
2018-08-09T15:57:41.986Z,5.10
2018-08-09T16:00:16.924Z,8.13
2018-08-09T16:02:46.447Z,5.37
2018-08-09T16:05:15.350Z,7.10
2018-08-09T16:07:44.081Z,10.50
2018-08-09T16:10:14.393Z,7.57
2018-08-09T16:12:43.018Z,10.40
2018-08-09T16:15:15.138Z,7.37
2018-08-09T16:17:44.753Z,10.30
2018-08-09T16:20:13.406Z,4.83
2018-08-09T16:22:42.897Z,10.60
2018-08-09T16:25:17.299Z,7.23
2018-08-09T16:27:46.081Z,6.10
2018-08-09T16:30:24.615Z,9.53
2018-08-09T16:32:53.452Z,5.90
2018-08-09T16:35:22.256Z,5.93
2018-08-09T16:37:50.992Z,7.87
2018-08-09T16:40:22.417Z,5.73
2018-08-09T16:42:51.169Z,4.27
2018-08-09T16:45:21.905Z,8.20
2018-08-09T16:47:51.568Z,7.10
2018-08-09T16:50:22.021Z,5.83
2018-08-09T16:52:51.500Z,7.30
2018-08-09T16:55:21.207Z,4.80
2018-08-09T16:57:50.626Z,5.80
2018-08-09T17:00:22.717Z,5.10
2018-08-09T17:02:52.465Z,6.43
2018-08-09T17:05:23.471Z,10.37
2018-08-09T17:07:52.168Z,6.07
2018-08-09T17:10:23.202Z,5.00
2018-08-09T17:12:52.023Z,5.13
2018-08-09T17:15:23.644Z,3.00
2018-08-09T17:17:53.175Z,4.70
2018-08-09T17:20:26.108Z,3.80
2018-08-09T17:22:55.076Z,3.93
2018-08-09T17:25:23.734Z,2.50
2018-08-09T17:27:52.654Z,8.20
2018-08-09T17:30:24.170Z,5.40
2018-08-09T17:32:52.784Z,3.90
2018-08-09T17:35:21.849Z,5.30
2018-08-09T17:37:50.681Z,3.70
2018-08-09T17:40:25.535Z,3.03
2018-08-09T17:42:55.472Z,4.03
2018-08-09T17:45:25.837Z,6.03
2018-08-09T17:47:54.561Z,4.90
2018-08-09T17:50:23.262Z,3.70
2018-08-09T17:52:52.178Z,3.30
2018-08-09T17:55:21.574Z,3.27
2018-08-09T17:57:50.171Z,3.50
2018-08-09T18:00:28.099Z,7.50
2018-08-09T18:02:56.941Z,3.50
2018-08-09T18:05:25.881Z,4.80
2018-08-09T18:07:57.981Z,3.33
2018-08-09T18:10:29.062Z,5.80
2018-08-09T18:12:57.941Z,4.03
2018-08-09T18:15:27.743Z,4.60
2018-08-09T18:17:57.292Z,4.80
2018-08-09T18:20:28.916Z,3.50
2018-08-09T18:22:57.660Z,3.03
2018-08-09T18:25:26.467Z,3.53
2018-08-09T18:27:55.176Z,4.07
2018-08-09T18:30:23.863Z,7.40
2018-08-09T18:32:52.849Z,6.83
2018-08-09T18:35:21.689Z,5.57
2018-08-09T18:37:50.928Z,7.33
2018-08-09T18:40:24.796Z,3.33
2018-08-09T18:42:53.484Z,2.40
2018-08-09T18:45:22.512Z,3.50
2018-08-09T18:47:51.194Z,2.87
2018-08-09T18:50:24.460Z,5.00
2018-08-09T18:52:53.147Z,6.33
2018-08-09T18:55:21.857Z,2.83
2018-08-09T18:57:50.510Z,3.03
2018-08-09T19:00:22.416Z,2.97
2018-08-09T19:02:51.504Z,3.03
2018-08-09T19:05:20.324Z,2.80
2018-08-09T19:07:49.106Z,3.80
2018-08-09T19:10:22.210Z,3.93
2018-08-09T19:12:50.892Z,4.10
2018-08-09T19:15:19.842Z,3.53
2018-08-09T19:17:48.791Z,3.07
2018-08-09T19:20:22.640Z,5.77
2018-08-09T19:22:51.690Z,2.67
2018-08-09T19:25:20.472Z,2.60
2018-08-09T19:27:49.063Z,4.33
2018-08-09T19:30:20.251Z,3.00
2018-08-09T19:32:49.129Z,2.30
2018-08-09T19:35:18.829Z,2.93
2018-08-09T19:37:47.658Z,2.70
2018-08-09T19:40:18.256Z,2.40
2018-08-09T19:42:47.345Z,2.80
2018-08-09T19:45:17.223Z,2.60
2018-08-09T19:47:45.888Z,2.20
2018-08-09T19:50:16.718Z,2.50
2018-08-09T19:52:45.471Z,2.20
2018-08-09T19:55:15.783Z,2.67
2018-08-09T19:57:45.824Z,3.50
2018-08-09T20:00:21.767Z,2.50
2018-08-09T20:02:50.684Z,2.37
2018-08-09T20:05:39.207Z,1.90
2018-08-09T20:11:03.816Z,2.10
2018-08-09T20:13:33.058Z,2.10
2018-08-09T20:16:13.243Z,3.67
2018-08-09T20:18:43.581Z,3.30
2018-08-09T20:21:16.568Z,1.93
2018-08-09T20:23:50.060Z,2.30
2018-08-09T20:26:21.461Z,3.43
2018-08-09T20:28:53.301Z,2.57
2018-08-09T20:31:22.580Z,2.43
2018-08-09T20:34:04.413Z,2.33
2018-08-09T20:36:36.599Z,2.30
2018-08-09T20:39:22.973Z,2.73
2018-08-09T20:41:53.579Z,2.60
2018-08-09T20:44:22.586Z,9.97
2018-08-09T20:47:06.152Z,2.40
2018-08-09T20:49:39.632Z,2.70
2018-08-09T20:52:08.485Z,2.63
2018-08-09T20:54:39.507Z,2.97
2018-08-09T20:57:08.464Z,3.60
2018-08-09T20:59:38.393Z,2.47
2018-08-09T21:03:04.040Z,2.70
2018-08-09T21:05:40.484Z,4.07
2018-08-09T21:08:14.156Z,3.80
2018-08-09T21:10:43.184Z,2.90
2018-08-09T21:13:13.354Z,2.63
2018-08-09T21:15:42.325Z,2.40
2018-08-09T21:18:13.645Z,4.70
2018-08-09T21:20:46.429Z,3.20
2018-08-09T21:23:18.962Z,5.67
2018-08-09T21:25:51.759Z,2.47
2018-08-09T21:28:21.402Z,1.77
2018-08-09T21:30:50.266Z,2.73
2018-08-09T21:33:19.892Z,2.57
2018-08-09T21:35:50.035Z,6.87
2018-08-09T21:38:22.633Z,5.53
2018-08-09T21:40:51.459Z,7.10
2018-08-09T21:43:20.838Z,4.17
2018-08-09T21:45:55.711Z,7.03
2018-08-09T21:48:30.630Z,3.07
2018-08-09T21:51:00.749Z,9.13
2018-08-09T21:53:31.619Z,3.13
2018-08-09T21:56:00.537Z,4.00
2018-08-09T21:58:29.485Z,5.93
2018-08-09T22:01:02.483Z,3.93
2018-08-09T22:03:36.049Z,3.90
2018-08-09T22:06:10.486Z,1.10
2018-08-09T22:08:44.613Z,3.80
2018-08-09T22:11:20.400Z,4.63
2018-08-09T22:13:54.875Z,1.23
2018-08-09T22:16:28.946Z,1.70
2018-08-09T22:19:03.458Z,1.43
2018-08-09T22:21:39.749Z,2.63
2018-08-09T22:24:08.636Z,0.93
2018-08-09T22:26:38.271Z,2.53
2018-08-09T22:29:07.815Z,1.90
2018-08-09T22:31:40.822Z,1.00
2018-08-09T22:34:19.649Z,5.03
2018-08-09T22:36:49.520Z,4.00
2018-08-09T22:39:19.186Z,1.17
2018-08-09T22:41:49.260Z,1.13
2018-08-09T22:44:19.006Z,1.20
2018-08-09T22:46:50.824Z,3.13
2018-08-09T22:49:24.837Z,0.73
2018-08-09T22:51:54.639Z,1.23
2018-08-09T22:54:27.853Z,0.70
2018-08-09T22:57:02.882Z,0.60
2018-08-09T22:59:32.351Z,0.40
2018-08-09T23:02:06.872Z,0.80
2018-08-09T23:04:35.711Z,0.40
2018-08-09T23:07:05.638Z,6.40
2018-08-09T23:09:35.437Z,0.93
2018-08-09T23:12:08.347Z,6.87
2018-08-09T23:14:37.208Z,1.23
2018-08-09T23:17:06.300Z,1.47
2018-08-09T23:19:35.290Z,1.27
2018-08-09T23:22:14.812Z,1.80
2018-08-09T23:24:48.773Z,3.23
2018-08-09T23:27:18.434Z,2.77
2018-08-09T23:29:59.095Z,0.50
2018-08-09T23:32:34.390Z,1.23
2018-08-09T23:35:06.358Z,0.80
2018-08-09T23:37:36.322Z,0.80
2018-08-09T23:40:08.458Z,0.80
2018-08-09T23:42:38.271Z,0.47
2018-08-09T23:45:13.498Z,1.80
2018-08-09T23:47:42.746Z,0.80
2018-08-09T23:50:13.417Z,1.23
2018-08-09T23:52:53.241Z,1.63
2018-08-09T23:55:22.958Z,0.67
2018-08-09T23:57:51.795Z,1.23
